createdAt,value
2018-10-09T00:00:07.098Z,24.34
2018-10-09T00:01:07.151Z,23.77
2018-10-09T00:03:00.142Z,24.24
2018-10-09T00:04:00.194Z,24.34
2018-10-09T00:05:53.179Z,23.77
2018-10-09T00:06:53.239Z,23.67
2018-10-09T00:08:46.230Z,22.44
2018-10-09T00:09:46.277Z,22.44
2018-10-09T00:11:39.259Z,21.48
2018-10-09T00:12:39.314Z,21.30
2018-10-09T00:14:32.300Z,21.48
2018-10-09T00:15:32.352Z,22.63
2018-10-09T00:17:25.331Z,22.44
2018-10-09T00:18:25.389Z,22.91
2018-10-09T00:20:18.380Z,22.72
2018-10-09T00:21:18.430Z,22.91
2018-10-09T00:23:11.425Z,23.00
2018-10-09T00:24:11.471Z,23.48
2018-10-09T00:26:04.499Z,24.24
2018-10-09T00:27:04.506Z,25.10
2018-10-09T00:28:57.491Z,24.91
2018-10-09T00:29:57.544Z,24.24
2018-10-09T00:31:50.534Z,23.39
2018-10-09T00:32:50.591Z,22.63
2018-10-09T00:34:43.579Z,21.39
2018-10-09T00:35:43.628Z,21.11
2018-10-09T00:37:36.607Z,23.00
2018-10-09T00:38:36.666Z,23.00
2018-10-09T00:40:29.652Z,22.15
2018-10-09T00:41:29.704Z,22.15
2018-10-09T00:43:22.701Z,21.96
2018-10-09T00:44:22.739Z,21.67
2018-10-09T00:46:15.725Z,22.44
2018-10-09T00:47:15.977Z,21.58
2018-10-09T00:49:08.770Z,20.15
2018-10-09T00:50:08.819Z,19.76
2018-10-09T00:52:01.800Z,19.67
2018-10-09T00:53:01.855Z,19.87
2018-10-09T00:54:54.849Z,20.34
2018-10-09T00:55:54.904Z,19.95
2018-10-09T00:57:47.880Z,18.05
2018-10-09T00:58:47.936Z,16.82
2018-10-09T01:00:41.434Z,16.06
2018-10-09T01:01:41.484Z,15.11
2018-10-09T01:03:34.482Z,13.87
2018-10-09T01:04:34.533Z,13.78
2018-10-09T01:06:27.510Z,12.54
2018-10-09T01:07:27.566Z,12.35
2018-10-09T01:09:20.557Z,13.02
2018-10-09T01:10:20.605Z,13.21
2018-10-09T01:12:13.586Z,13.11
2018-10-09T01:13:13.645Z,13.96
2018-10-09T01:15:06.629Z,16.06
2018-10-09T01:16:06.680Z,15.68
2018-10-09T01:17:59.660Z,16.91
2018-10-09T01:18:59.722Z,17.01
2018-10-09T01:20:52.709Z,15.30
2018-10-09T01:21:52.757Z,14.06
2018-10-09T01:23:45.736Z,12.92
2018-10-09T01:24:45.800Z,15.48
2018-10-09T01:26:38.785Z,16.06
2018-10-09T01:27:38.833Z,15.58
2018-10-09T01:29:31.817Z,14.54
2018-10-09T01:30:31.873Z,14.25
2018-10-09T01:32:24.847Z,13.21
2018-10-09T01:33:24.907Z,13.02
2018-10-09T01:35:17.897Z,15.77
2018-10-09T01:36:17.950Z,16.06
2018-10-09T01:38:11.032Z,14.82
2018-10-09T01:39:11.090Z,15.20
2018-10-09T01:41:04.081Z,15.20
2018-10-09T01:42:04.128Z,14.06
2018-10-09T01:43:57.108Z,13.01
2018-10-09T01:44:57.166Z,12.25
2018-10-09T01:46:50.151Z,11.11
2018-10-09T01:47:50.203Z,11.11
2018-10-09T01:49:43.187Z,10.36
2018-10-09T01:50:43.241Z,10.44
2018-10-09T01:52:36.219Z,12.82
2018-10-09T01:53:36.277Z,14.34
2018-10-09T01:55:29.268Z,14.15
2018-10-09T01:56:29.320Z,13.48
2018-10-09T01:58:22.300Z,11.87
2018-10-09T01:59:22.356Z,11.30
2018-10-09T02:01:15.348Z,10.64
2018-10-09T02:02:15.398Z,10.83
2018-10-09T02:04:08.385Z,11.02
2018-10-09T02:05:08.440Z,10.16
2018-10-09T02:07:01.433Z,9.21
2018-10-09T02:08:01.486Z,8.54
2018-10-09T02:09:54.478Z,8.45
2018-10-09T02:10:54.524Z,8.54
2018-10-09T02:12:47.504Z,7.50
2018-10-09T02:13:47.562Z,7.88
2018-10-09T02:15:40.551Z,9.40
2018-10-09T02:16:40.597Z,9.50
2018-10-09T02:18:33.580Z,10.25
2018-10-09T02:19:33.637Z,12.16
2018-10-09T02:21:26.627Z,13.10
2018-10-09T02:22:26.674Z,12.63
2018-10-09T02:24:19.665Z,13.10
2018-10-09T02:25:19.729Z,14.81
2018-10-09T02:27:12.711Z,15.10
2018-10-09T02:28:12.762Z,13.87
2018-10-09T02:30:05.751Z,11.68
2018-10-09T02:31:05.799Z,11.40
2018-10-09T02:32:58.776Z,10.25
2018-10-09T02:33:58.833Z,9.12
2018-10-09T02:35:51.825Z,8.26
2018-10-09T02:36:51.871Z,6.84
2018-10-09T02:38:44.849Z,7.88
2018-10-09T02:39:44.906Z,8.36
2018-10-09T02:41:37.892Z,8.36
2018-10-09T02:42:37.944Z,8.45
2018-10-09T02:44:30.924Z,8.36
2018-10-09T02:45:30.998Z,8.07
2018-10-09T02:47:23.971Z,7.50
2018-10-09T02:48:24.023Z,7.88
2018-10-09T02:50:17.012Z,9.59
2018-10-09T02:51:17.058Z,11.21
2018-10-09T02:53:10.038Z,11.77
2018-10-09T02:54:10.109Z,10.73
2018-10-09T02:56:03.094Z,9.78
2018-10-09T02:57:03.145Z,9.59
2018-10-09T02:58:56.125Z,8.83
2018-10-09T02:59:56.188Z,8.45
2018-10-09T03:01:49.172Z,9.12
2018-10-09T03:02:49.218Z,9.50
2018-10-09T03:04:42.196Z,12.63
2018-10-09T03:05:42.258Z,12.73
2018-10-09T03:07:35.237Z,11.77
2018-10-09T03:08:35.360Z,11.96
2018-10-09T03:10:28.273Z,10.35
2018-10-09T03:11:28.325Z,9.68
2018-10-09T03:13:21.300Z,9.49
2018-10-09T03:14:21.358Z,9.01
2018-10-09T03:16:14.342Z,10.35
2018-10-09T03:17:14.396Z,11.77
2018-10-09T03:19:07.373Z,11.40
2018-10-09T03:20:07.429Z,11.30
2018-10-09T03:22:00.419Z,11.68
2018-10-09T03:23:00.461Z,11.30
2018-10-09T03:24:53.439Z,10.73
2018-10-09T03:25:53.498Z,11.02
2018-10-09T03:27:46.488Z,10.73
2018-10-09T03:28:46.539Z,11.21
2018-10-09T03:30:39.530Z,11.49
2018-10-09T03:31:39.583Z,10.83
2018-10-09T03:33:32.571Z,11.77
2018-10-09T03:34:32.609Z,12.72
2018-10-09T03:36:25.595Z,12.63
2018-10-09T03:37:25.643Z,12.81
2018-10-09T03:39:18.619Z,11.39
2018-10-09T03:40:18.678Z,10.35
2018-10-09T03:42:11.662Z,9.59
2018-10-09T03:43:11.711Z,9.39
2018-10-09T03:45:04.690Z,10.53
2018-10-09T03:46:04.746Z,11.20
2018-10-09T03:47:57.730Z,10.63
2018-10-09T03:48:57.781Z,10.83
2018-10-09T03:50:50.771Z,12.06
2018-10-09T03:51:50.822Z,11.87
2018-10-09T03:53:43.800Z,10.53
2018-10-09T03:54:43.855Z,10.16
2018-10-09T03:56:36.845Z,9.97
2018-10-09T03:57:36.889Z,9.97
2018-10-09T03:59:29.867Z,9.87
2018-10-09T04:00:29.926Z,9.97
2018-10-09T04:02:22.910Z,9.11
2018-10-09T04:03:22.960Z,8.26
2018-10-09T04:05:15.944Z,7.88
2018-10-09T04:06:16.005Z,8.07
2018-10-09T04:08:08.993Z,8.83
2018-10-09T04:09:09.164Z,9.20
2018-10-09T04:11:02.030Z,8.83
2018-10-09T04:12:02.077Z,8.54
2018-10-09T04:13:55.061Z,9.11
2018-10-09T04:14:55.108Z,8.83
2018-10-09T04:16:48.093Z,9.78
2018-10-09T04:17:48.144Z,9.20
2018-10-09T04:19:41.118Z,8.54
2018-10-09T04:20:41.180Z,7.97
2018-10-09T04:22:34.160Z,8.54
2018-10-09T04:23:34.210Z,8.54
2018-10-09T04:25:27.188Z,9.87
2018-10-09T04:26:27.243Z,10.82
2018-10-09T04:28:20.271Z,10.16
2018-10-09T04:29:20.318Z,9.68
2018-10-09T04:31:13.253Z,9.20
2018-10-09T04:32:13.310Z,8.73
2018-10-09T04:34:06.296Z,9.11
2018-10-09T04:35:06.346Z,9.20
2018-10-09T04:36:59.337Z,9.87
2018-10-09T04:37:59.387Z,10.91
2018-10-09T04:39:52.365Z,10.35
2018-10-09T04:40:52.419Z,11.01
2018-10-09T04:42:45.405Z,10.06
2018-10-09T04:43:45.452Z,10.44
2018-10-09T04:45:38.496Z,11.87
2018-10-09T04:46:38.604Z,11.68
2018-10-09T04:48:31.480Z,10.35
2018-10-09T04:49:31.522Z,9.49
2018-10-09T04:51:24.502Z,8.45
2018-10-09T04:52:24.560Z,8.16
2018-10-09T04:54:17.550Z,11.10
2018-10-09T04:55:17.594Z,12.15
2018-10-09T04:57:10.580Z,10.91
2018-10-09T04:58:10.629Z,9.59
2018-10-09T05:00:04.121Z,9.20
2018-10-09T05:01:04.178Z,9.11
2018-10-09T05:02:57.160Z,8.35
2018-10-09T05:03:57.252Z,7.68
2018-10-09T05:05:50.306Z,6.26
2018-10-09T05:06:50.246Z,5.12
2018-10-09T05:08:43.232Z,3.61
2018-10-09T05:09:43.282Z,3.41
2018-10-09T05:11:36.273Z,5.22
2018-10-09T05:12:36.332Z,5.88
2018-10-09T05:14:29.338Z,5.03
2018-10-09T05:15:29.372Z,4.65
2018-10-09T05:17:22.354Z,4.08
2018-10-09T05:18:22.405Z,3.61
2018-10-09T05:20:15.389Z,2.66
2018-10-09T05:21:15.445Z,2.18
2018-10-09T05:23:08.458Z,2.66
2018-10-09T05:24:08.477Z,3.03
2018-10-09T05:26:01.457Z,3.70
2018-10-09T05:27:01.527Z,3.13
2018-10-09T05:28:54.499Z,3.03
2018-10-09T05:29:54.548Z,2.94
2018-10-09T05:31:47.539Z,4.65
2018-10-09T05:32:47.597Z,5.03
2018-10-09T05:34:40.588Z,6.45
2018-10-09T05:35:40.654Z,6.83
2018-10-09T05:37:33.639Z,6.36
2018-10-09T05:38:33.673Z,6.17
2018-10-09T05:40:26.653Z,6.26
2018-10-09T05:41:26.712Z,5.98
2018-10-09T05:43:19.703Z,6.26
2018-10-09T05:44:19.816Z,6.26
2018-10-09T05:46:12.729Z,6.93
2018-10-09T05:47:12.781Z,7.03
2018-10-09T05:49:05.777Z,7.59
2018-10-09T05:50:05.832Z,7.50
2018-10-09T05:51:58.837Z,7.59
2018-10-09T05:52:58.887Z,6.83
2018-10-09T05:54:51.871Z,7.03
2018-10-09T05:55:51.918Z,6.17
2018-10-09T05:57:44.901Z,5.32
2018-10-09T05:58:44.957Z,5.41
2018-10-09T06:00:38.451Z,7.03
2018-10-09T06:01:38.501Z,7.68
2018-10-09T06:03:31.481Z,8.07
2018-10-09T06:04:31.538Z,8.54
2018-10-09T06:06:24.548Z,9.68
2018-10-09T06:07:24.577Z,9.97
2018-10-09T06:09:17.567Z,9.39
2018-10-09T06:10:17.612Z,9.68
2018-10-09T06:12:10.590Z,10.44
2018-10-09T06:13:10.647Z,10.35
2018-10-09T06:15:03.637Z,10.92
2018-10-09T06:16:03.758Z,9.97
2018-10-09T06:17:56.667Z,9.88
2018-10-09T06:18:56.726Z,9.12
2018-10-09T06:20:49.719Z,9.78
2018-10-09T06:21:49.768Z,10.16
2018-10-09T06:23:42.748Z,11.11
2018-10-09T06:24:42.797Z,10.92
2018-10-09T06:26:35.783Z,11.11
2018-10-09T06:27:35.834Z,11.58
2018-10-09T06:29:28.823Z,12.06
2018-10-09T06:30:28.874Z,11.40
2018-10-09T06:32:21.853Z,11.87
2018-10-09T06:33:21.910Z,12.25
2018-10-09T06:35:14.899Z,13.29
2018-10-09T06:36:14.946Z,13.48
2018-10-09T06:38:07.925Z,12.16
2018-10-09T06:39:07.984Z,12.54
2018-10-09T06:41:00.969Z,13.21
2018-10-09T06:42:01.016Z,13.21
2018-10-09T06:43:53.996Z,13.02
2018-10-09T06:44:54.054Z,13.78
2018-10-09T06:46:47.044Z,14.35
2018-10-09T06:47:47.152Z,15.20
2018-10-09T06:49:40.084Z,15.01
2018-10-09T06:50:40.132Z,14.54
2018-10-09T06:52:33.111Z,15.11
2018-10-09T06:53:33.319Z,14.92
2018-10-09T06:55:26.159Z,15.20
2018-10-09T06:56:26.200Z,15.20
2018-10-09T06:58:19.194Z,15.39
2018-10-09T06:59:19.249Z,15.68
2018-10-09T07:01:12.230Z,15.39
2018-10-09T07:02:12.281Z,15.39
2018-10-09T07:04:05.267Z,16.15
2018-10-09T07:05:05.318Z,16.63
2018-10-09T07:06:58.309Z,18.06
2018-10-09T07:07:58.355Z,18.06
2018-10-09T07:09:51.335Z,18.54
2018-10-09T07:10:51.392Z,19.39
2018-10-09T07:12:44.379Z,21.20
2018-10-09T07:13:44.428Z,23.68
2018-10-09T07:15:37.417Z,30.54
2018-10-09T07:16:37.471Z,37.59
2018-10-09T07:18:30.448Z,44.54
2018-10-09T07:19:30.505Z,44.75
2018-10-09T07:21:23.517Z,53.56
2018-10-09T07:22:23.545Z,67.90
2018-10-09T07:24:16.524Z,80.76
2018-10-09T07:25:16.582Z,83.14
2018-10-09T07:27:09.573Z,81.33
2018-10-09T07:28:09.619Z,82.19
2018-10-09T07:30:02.616Z,82.86
2018-10-09T07:31:02.675Z,84.96
2018-10-09T07:32:55.665Z,92.64
2018-10-09T07:33:55.711Z,96.84
2018-10-09T07:35:48.704Z,92.06
2018-10-09T07:36:48.752Z,90.77
2018-10-09T07:38:41.734Z,91.01
2018-10-09T07:39:41.797Z,94.12
2018-10-09T07:41:34.849Z,96.84
2018-10-09T07:42:34.838Z,96.80
2018-10-09T07:44:27.824Z,94.50
2018-10-09T07:45:27.886Z,91.67
2018-10-09T07:47:20.876Z,89.28
2018-10-09T07:48:20.927Z,85.54
2018-10-09T07:50:13.911Z,79.63
2018-10-09T07:51:13.970Z,77.33
2018-10-09T07:53:06.968Z,79.68
2018-10-09T07:54:07.025Z,82.62
2018-10-09T07:56:00.027Z,86.50
2018-10-09T07:57:00.080Z,92.49
2018-10-09T07:58:53.062Z,96.80
2018-10-09T07:59:53.133Z,96.84
2018-10-09T08:01:46.118Z,94.12
2018-10-09T08:02:46.169Z,93.84
2018-10-09T08:04:39.161Z,92.50
2018-10-09T08:05:39.218Z,92.59
2018-10-09T08:07:32.211Z,93.12
2018-10-09T08:08:32.267Z,94.46
2018-10-09T08:10:25.312Z,94.55
2018-10-09T08:11:25.311Z,95.12
2018-10-09T08:13:18.307Z,95.12
2018-10-09T08:14:18.358Z,95.61
2018-10-09T08:16:11.448Z,96.66
2018-10-09T08:17:11.681Z,96.84
2018-10-09T08:19:04.387Z,97.66
2018-10-09T08:20:04.449Z,98.66
2018-10-09T08:21:57.444Z,94.40
2018-10-09T08:22:57.555Z,88.55
2018-10-09T08:24:50.495Z,79.61
2018-10-09T08:25:50.555Z,78.42
2018-10-09T08:27:43.558Z,81.35
2018-10-09T08:28:43.614Z,78.65
2018-10-09T08:30:36.615Z,73.50
2018-10-09T08:31:36.674Z,71.48
2018-10-09T08:33:29.676Z,71.39
2018-10-09T08:34:29.737Z,72.37
2018-10-09T08:36:22.738Z,81.41
2018-10-09T08:37:22.790Z,84.91
2018-10-09T08:39:15.790Z,93.98
2018-10-09T08:40:15.921Z,95.75
2018-10-09T08:42:08.845Z,98.00
2018-10-09T08:43:08.901Z,98.09
2018-10-09T08:45:01.890Z,97.71
2018-10-09T08:46:02.021Z,98.04
2018-10-09T08:47:54.947Z,97.28
2018-10-09T08:48:55.057Z,97.85
2018-10-09T08:50:47.996Z,96.75
2018-10-09T08:51:48.090Z,96.18
2018-10-09T08:53:41.048Z,93.98
2018-10-09T08:54:41.103Z,92.64
2018-10-09T08:56:34.097Z,89.53
2018-10-09T08:57:34.166Z,88.20
2018-10-09T08:59:27.153Z,85.62
2018-10-09T09:00:27.198Z,84.66
2018-10-09T09:02:20.192Z,80.51
2018-10-09T09:03:20.254Z,77.26
2018-10-09T09:05:13.230Z,66.38
2018-10-09T09:06:13.287Z,63.29
2018-10-09T09:08:06.281Z,60.71
2018-10-09T09:09:06.333Z,61.38
2018-10-09T09:10:59.316Z,58.70
2018-10-09T09:11:59.378Z,59.19
2018-10-09T09:13:52.393Z,56.51
2018-10-09T09:14:52.423Z,55.27
2018-10-09T09:16:45.418Z,57.94
2018-10-09T09:17:45.469Z,57.09
2018-10-09T09:19:38.463Z,54.70
2018-10-09T09:20:38.665Z,56.70
2018-10-09T09:22:31.522Z,59.66
2018-10-09T09:23:31.575Z,61.60
2018-10-09T09:25:24.563Z,65.14
2018-10-09T09:26:24.678Z,65.33
2018-10-09T09:28:17.621Z,66.56
2018-10-09T09:29:17.671Z,64.02
2018-10-09T09:31:10.662Z,66.41
2018-10-09T09:32:10.723Z,58.38
2018-10-09T09:34:03.718Z,68.61
2018-10-09T09:35:03.774Z,75.68
2018-10-09T09:36:56.766Z,75.24
2018-10-09T09:37:56.816Z,68.16
2018-10-09T09:39:49.808Z,70.27
2018-10-09T09:40:49.887Z,77.00
2018-10-09T09:42:42.860Z,78.24
2018-10-09T09:43:42.911Z,77.48
2018-10-09T09:45:35.924Z,81.78
2018-10-09T09:46:35.961Z,80.44
2018-10-09T09:48:28.948Z,72.79
2018-10-09T09:49:29.001Z,82.26
2018-10-09T09:51:21.987Z,83.79
2018-10-09T09:52:22.045Z,82.35
2018-10-09T09:54:15.050Z,82.74
2018-10-09T09:55:15.104Z,81.92
2018-10-09T09:57:08.105Z,77.61
2018-10-09T09:58:08.247Z,75.83
2018-10-09T10:00:01.652Z,78.89
2018-10-09T10:01:01.712Z,85.21
2018-10-09T10:02:54.711Z,84.74
2018-10-09T10:03:54.764Z,84.16
2018-10-09T10:05:47.750Z,81.29
2018-10-09T10:06:47.809Z,86.08
2018-10-09T10:08:40.803Z,80.04
2018-10-09T10:09:40.854Z,84.98
2018-10-09T10:11:33.847Z,84.79
2018-10-09T10:12:33.904Z,84.26
2018-10-09T10:14:26.899Z,80.67
2018-10-09T10:15:26.953Z,78.38
2018-10-09T10:17:19.939Z,81.05
2018-10-09T10:18:19.996Z,80.00
2018-10-09T10:20:13.001Z,82.34
2018-10-09T10:21:13.073Z,83.11
2018-10-09T10:23:06.050Z,84.58
2018-10-09T10:24:06.105Z,82.76
2018-10-09T10:25:59.092Z,88.03
2018-10-09T10:26:59.157Z,91.00
2018-10-09T10:28:52.147Z,90.23
2018-10-09T10:29:52.198Z,90.81
2018-10-09T10:31:45.183Z,89.66
2018-10-09T10:32:45.243Z,85.35
2018-10-09T10:34:38.282Z,87.79
2018-10-09T10:35:38.373Z,88.94
2018-10-09T10:37:31.280Z,88.08
2018-10-09T10:38:31.341Z,90.33
2018-10-09T10:40:24.334Z,92.82
2018-10-09T10:41:24.399Z,93.11
2018-10-09T10:43:17.382Z,91.38
2018-10-09T10:44:17.433Z,92.96
2018-10-09T10:46:10.429Z,93.63
2018-10-09T10:47:10.487Z,94.31
2018-10-09T10:49:03.559Z,95.07
2018-10-09T10:50:03.533Z,95.26
2018-10-09T10:51:56.521Z,93.35
2018-10-09T10:52:56.588Z,95.07
2018-10-09T10:54:49.594Z,96.42
2018-10-09T10:55:49.631Z,95.03
2018-10-09T10:57:42.618Z,95.60
2018-10-09T10:58:42.681Z,95.70
2018-10-09T11:00:36.192Z,96.61
2018-10-09T11:01:36.245Z,95.94
2018-10-09T11:03:29.239Z,94.59
2018-10-09T11:04:29.292Z,94.69
2018-10-09T11:06:22.297Z,94.88
2018-10-09T11:07:22.349Z,94.40
2018-10-09T11:09:15.347Z,95.07
2018-10-09T11:10:15.398Z,95.45
2018-10-09T11:12:08.386Z,94.11
2018-10-09T11:13:08.448Z,93.92
2018-10-09T11:15:01.476Z,93.73
2018-10-09T11:16:01.515Z,94.83
2018-10-09T11:17:54.502Z,95.12
2018-10-09T11:18:54.560Z,95.60
2018-10-09T11:20:47.561Z,93.77
2018-10-09T11:21:47.616Z,91.85
2018-10-09T11:23:40.621Z,94.83
2018-10-09T11:24:40.670Z,95.31
2018-10-09T11:26:33.659Z,95.31
2018-10-09T11:27:33.715Z,93.58
2018-10-09T11:29:26.715Z,95.07
2018-10-09T11:30:26.772Z,94.69
2018-10-09T11:32:19.772Z,96.37
2018-10-09T11:33:19.827Z,96.27
2018-10-09T11:35:12.823Z,98.00
2018-10-09T11:36:12.878Z,97.42
2018-10-09T11:38:05.871Z,96.94
2018-10-09T11:39:05.926Z,97.71
2018-10-09T11:40:58.929Z,97.14
2018-10-09T11:41:58.988Z,98.10
2018-10-09T11:43:51.973Z,97.24
2018-10-09T11:44:52.027Z,97.71
2018-10-09T11:46:45.018Z,97.33
2018-10-09T11:47:45.079Z,97.14
2018-10-09T11:49:38.101Z,97.28
2018-10-09T11:50:38.135Z,98.14
2018-10-09T11:52:31.134Z,97.33
2018-10-09T11:53:31.199Z,98.38
2018-10-09T11:55:24.217Z,98.67
2018-10-09T11:56:24.251Z,98.29
2018-10-09T11:58:17.240Z,97.42
2018-10-09T11:59:17.303Z,97.52
2018-10-09T12:01:10.311Z,97.24
2018-10-09T12:02:10.362Z,97.14
2018-10-09T12:04:03.359Z,97.33
2018-10-09T12:05:03.415Z,97.52
2018-10-09T12:06:56.406Z,97.52
2018-10-09T12:07:56.466Z,97.52
2018-10-09T12:09:49.463Z,97.71
2018-10-09T12:10:49.518Z,98.38
2018-10-09T12:12:42.504Z,97.33
2018-10-09T12:13:42.561Z,96.85
2018-10-09T12:15:35.563Z,97.04
2018-10-09T12:16:35.614Z,97.04
2018-10-09T12:18:28.622Z,97.24
2018-10-09T12:19:28.683Z,97.33
2018-10-09T12:21:21.696Z,97.66
2018-10-09T12:22:21.747Z,97.71
2018-10-09T12:24:14.737Z,97.33
2018-10-09T12:25:14.788Z,96.94
2018-10-09T12:27:07.869Z,97.52
2018-10-09T12:28:07.860Z,98.19
2018-10-09T12:30:00.865Z,97.33
2018-10-09T12:31:00.920Z,96.70
2018-10-09T12:32:53.951Z,96.27
2018-10-09T12:33:53.970Z,96.85
2018-10-09T12:35:46.979Z,97.66
2018-10-09T12:36:47.029Z,96.61
2018-10-09T12:38:40.043Z,96.80
2018-10-09T12:39:40.111Z,95.45
2018-10-09T12:41:33.108Z,98.24
2018-10-09T12:42:33.163Z,97.86
2018-10-09T12:44:26.294Z,94.31
2018-10-09T12:45:26.221Z,93.92
2018-10-09T12:47:19.209Z,94.01
2018-10-09T12:48:19.273Z,93.92
2018-10-09T12:50:12.319Z,92.00
2018-10-09T12:51:12.339Z,93.77
2018-10-09T12:53:05.375Z,94.06
2018-10-09T12:54:05.393Z,95.21
2018-10-09T12:55:58.393Z,91.22
2018-10-09T12:56:58.460Z,90.22
2018-10-09T12:58:51.529Z,91.99
2018-10-09T12:59:51.703Z,89.83
2018-10-09T13:01:44.509Z,91.08
2018-10-09T13:02:44.562Z,91.66
2018-10-09T13:04:37.571Z,88.30
2018-10-09T13:05:37.620Z,90.89
2018-10-09T13:07:30.625Z,87.82
2018-10-09T13:08:30.683Z,89.93
2018-10-09T13:10:23.679Z,89.36
2018-10-09T13:11:23.733Z,88.10
2018-10-09T13:13:16.730Z,90.03
2018-10-09T13:14:16.794Z,89.64
2018-10-09T13:16:09.793Z,88.68
2018-10-09T13:17:09.870Z,89.50
2018-10-09T13:19:02.844Z,90.26
2018-10-09T13:20:02.904Z,87.57
2018-10-09T13:21:56.290Z,84.74
2018-10-09T13:22:56.075Z,85.61
2018-10-09T13:24:48.973Z,88.34
2018-10-09T13:25:49.022Z,86.90
2018-10-09T13:27:42.023Z,87.09
2018-10-09T13:28:42.087Z,86.52
2018-10-09T13:30:35.084Z,87.76
2018-10-09T13:31:35.139Z,89.50
2018-10-09T13:33:28.142Z,87.09
2018-10-09T13:34:28.244Z,86.71
2018-10-09T13:36:21.219Z,85.84
2018-10-09T13:37:21.248Z,87.34
2018-10-09T13:39:14.245Z,91.03
2018-10-09T13:40:14.309Z,85.75
2018-10-09T13:42:07.312Z,85.94
2018-10-09T13:43:07.368Z,87.38
2018-10-09T13:45:00.357Z,86.22
2018-10-09T13:46:00.421Z,86.42
2018-10-09T13:47:53.430Z,89.11
2018-10-09T13:48:53.486Z,87.38
2018-10-09T13:50:46.516Z,87.67
2018-10-09T13:51:46.539Z,85.75
2018-10-09T13:53:39.530Z,86.04
2018-10-09T13:54:39.592Z,86.04
2018-10-09T13:56:32.596Z,83.96
2018-10-09T13:57:32.653Z,82.56
2018-10-09T13:59:25.644Z,81.50
2018-10-09T14:00:25.738Z,78.81
2018-10-09T14:02:18.716Z,79.25
2018-10-09T14:03:18.774Z,80.30
2018-10-09T14:05:11.771Z,80.50
2018-10-09T14:06:11.882Z,80.75
2018-10-09T14:08:04.833Z,80.60
2018-10-09T14:09:04.890Z,81.56
2018-10-09T14:10:57.887Z,79.35
2018-10-09T14:11:57.944Z,78.42
2018-10-09T14:13:50.939Z,80.73
2018-10-09T14:14:51.010Z,78.61
2018-10-09T14:16:44.004Z,80.40
2018-10-09T14:17:44.058Z,80.02
2018-10-09T14:19:37.058Z,83.19
2018-10-09T14:20:37.116Z,82.14
2018-10-09T14:22:30.211Z,85.02
2018-10-09T14:23:30.170Z,83.77
2018-10-09T14:25:23.174Z,85.17
2018-10-09T14:26:23.241Z,89.40
2018-10-09T14:28:16.239Z,86.61
2018-10-09T14:29:16.296Z,88.06
2018-10-09T14:31:09.286Z,85.65
2018-10-09T14:32:09.350Z,86.71
2018-10-09T14:34:02.349Z,87.24
2018-10-09T14:35:02.475Z,87.67
2018-10-09T14:36:55.397Z,89.74
2018-10-09T14:37:55.459Z,87.53
2018-10-09T14:39:48.456Z,88.78
2018-10-09T14:40:48.514Z,90.03
2018-10-09T14:42:41.523Z,89.83
2018-10-09T14:43:41.580Z,90.31
2018-10-09T14:45:34.575Z,94.35
2018-10-09T14:46:34.633Z,91.75
2018-10-09T14:48:27.628Z,90.60
2018-10-09T14:49:27.684Z,91.18
2018-10-09T14:51:20.681Z,91.47
2018-10-09T14:52:20.741Z,93.49
2018-10-09T14:54:13.744Z,93.58
2018-10-09T14:55:13.801Z,93.49
2018-10-09T14:57:06.789Z,93.19
2018-10-09T14:58:06.852Z,93.49
2018-10-09T14:59:59.855Z,93.77
2018-10-09T15:00:59.915Z,93.10
2018-10-09T15:02:52.917Z,93.68
2018-10-09T15:03:52.971Z,93.58
2018-10-09T15:05:45.961Z,94.26
2018-10-09T15:06:46.024Z,94.26
2018-10-09T15:08:39.033Z,94.93
2018-10-09T15:09:39.179Z,96.80
2018-10-09T15:11:32.084Z,96.42
2018-10-09T15:12:32.145Z,95.65
2018-10-09T15:14:25.154Z,95.26
2018-10-09T15:15:25.524Z,96.89
2018-10-09T15:17:18.228Z,98.14
2018-10-09T15:18:18.258Z,97.76
2018-10-09T15:20:11.260Z,96.70
2018-10-09T15:21:11.316Z,96.70
2018-10-09T15:23:04.322Z,96.99
2018-10-09T15:24:04.377Z,97.76
2018-10-09T15:25:57.375Z,98.14
2018-10-09T15:26:57.430Z,98.43
2018-10-09T15:28:50.430Z,99.30
2018-10-09T15:29:50.485Z,98.48
2018-10-09T15:31:43.483Z,98.96
2018-10-09T15:32:43.548Z,98.96
2018-10-09T15:34:36.545Z,99.54
2018-10-09T15:35:36.599Z,99.40
2018-10-09T15:37:29.596Z,98.91
2018-10-09T15:38:29.657Z,99.20
2018-10-09T15:40:22.655Z,99.34
2018-10-09T15:41:22.721Z,99.10
2018-10-09T15:43:15.706Z,98.77
2018-10-09T15:44:15.767Z,98.77
2018-10-09T15:46:08.771Z,97.52
2018-10-09T15:47:08.863Z,96.18
2018-10-09T15:49:01.835Z,94.40
2018-10-09T15:50:01.894Z,91.62
2018-10-09T15:51:54.881Z,90.75
2018-10-09T15:52:54.940Z,90.08
2018-10-09T15:54:47.941Z,88.45
2018-10-09T15:55:47.997Z,87.49
2018-10-09T15:57:41.001Z,86.58
2018-10-09T15:58:41.060Z,86.30
2018-10-09T16:00:34.564Z,81.79
2018-10-09T16:01:34.615Z,78.92
2018-10-09T16:03:27.604Z,83.14
2018-10-09T16:04:27.663Z,83.81
2018-10-09T16:06:20.661Z,84.28
2018-10-09T16:07:20.714Z,82.37
2018-10-09T16:09:13.712Z,82.65
2018-10-09T16:10:13.767Z,83.33
2018-10-09T16:12:06.753Z,82.37
2018-10-09T16:13:06.813Z,82.37
2018-10-09T16:14:59.808Z,76.19
2018-10-09T16:15:59.862Z,76.39
2018-10-09T16:17:52.850Z,68.43
2018-10-09T16:18:52.911Z,65.75
2018-10-09T16:20:45.942Z,61.31
2018-10-09T16:21:45.961Z,60.06
2018-10-09T16:23:38.946Z,54.79
2018-10-09T16:24:39.009Z,51.99
2018-10-09T16:26:32.005Z,49.11
2018-10-09T16:27:32.060Z,46.82
2018-10-09T16:29:25.050Z,43.08
2018-10-09T16:30:25.109Z,43.76
2018-10-09T16:32:18.179Z,41.53
2018-10-09T16:33:18.157Z,39.73
2018-10-09T16:35:11.154Z,37.04
2018-10-09T16:36:11.213Z,35.98
2018-10-09T16:38:04.219Z,34.55
2018-10-09T16:39:04.268Z,34.16
2018-10-09T16:40:57.288Z,34.45
2018-10-09T16:41:57.322Z,33.40
2018-10-09T16:43:50.312Z,31.47
2018-10-09T16:44:50.372Z,30.13
2018-10-09T16:46:43.368Z,28.98
2018-10-09T16:47:43.422Z,29.17
2018-10-09T16:49:36.403Z,27.16
2018-10-09T16:50:36.464Z,24.29
2018-10-09T16:52:29.464Z,24.10
2018-10-09T16:53:29.534Z,24.39
2018-10-09T16:55:22.514Z,23.24
2018-10-09T16:56:22.568Z,23.43
2018-10-09T16:58:15.543Z,22.85
2018-10-09T16:59:15.605Z,23.13
2018-10-09T17:01:09.105Z,23.23
2018-10-09T17:02:09.158Z,21.41
2018-10-09T17:04:02.140Z,21.03
2018-10-09T17:05:02.206Z,23.13
2018-10-09T17:06:55.264Z,22.47
2018-10-09T17:07:55.250Z,21.61
2018-10-09T17:09:48.239Z,20.84
2018-10-09T17:10:48.296Z,20.07
2018-10-09T17:12:41.292Z,20.07
2018-10-09T17:13:41.347Z,20.26
2018-10-09T17:15:34.380Z,18.54
2018-10-09T17:16:34.434Z,19.20
2018-10-09T17:18:27.421Z,18.15
2018-10-09T17:19:27.475Z,16.53
2018-10-09T17:21:20.476Z,18.15
2018-10-09T17:22:20.574Z,18.73
2018-10-09T17:24:13.514Z,18.91
2018-10-09T17:25:13.580Z,18.25
2018-10-09T17:27:06.571Z,18.15
2018-10-09T17:28:06.622Z,17.96
2018-10-09T17:29:59.610Z,17.77
2018-10-09T17:30:59.667Z,18.06
2018-10-09T17:32:52.689Z,18.15
2018-10-09T17:33:52.723Z,18.15
2018-10-09T17:35:45.705Z,17.39
2018-10-09T17:36:45.764Z,17.68
2018-10-09T17:38:38.758Z,17.76
2018-10-09T17:39:38.810Z,17.95
2018-10-09T17:41:31.803Z,17.19
2018-10-09T17:42:31.854Z,17.29
2018-10-09T17:44:24.878Z,16.90
2018-10-09T17:45:24.924Z,16.42
2018-10-09T17:47:17.904Z,16.33
2018-10-09T17:48:17.953Z,17.00
2018-10-09T17:50:10.952Z,17.19
2018-10-09T17:51:11.007Z,17.38
2018-10-09T17:53:04.001Z,17.10
2018-10-09T17:54:04.086Z,16.61
2018-10-09T17:55:57.058Z,16.24
2018-10-09T17:56:57.439Z,15.85
2018-10-09T17:58:50.177Z,16.52
2018-10-09T17:59:50.235Z,17.10
2018-10-09T18:01:43.165Z,16.14
2018-10-09T18:02:43.256Z,17.38
2018-10-09T18:04:36.215Z,18.33
2018-10-09T18:05:36.268Z,17.95
2018-10-09T18:07:29.257Z,17.10
2018-10-09T18:08:29.391Z,14.70
2018-10-09T18:10:22.317Z,14.23
2018-10-09T18:11:22.375Z,15.56
2018-10-09T18:13:15.400Z,19.01
2018-10-09T18:14:15.413Z,19.29
2018-10-09T18:16:08.482Z,18.24
2018-10-09T18:17:08.470Z,17.94
2018-10-09T18:19:01.461Z,17.47
2018-10-09T18:20:01.552Z,17.37
2018-10-09T18:21:54.496Z,15.94
2018-10-09T18:22:54.575Z,16.03
2018-10-09T18:24:47.602Z,15.46
2018-10-09T18:25:47.618Z,15.08
2018-10-09T18:27:40.601Z,14.61
2018-10-09T18:28:40.659Z,14.41
2018-10-09T18:30:33.656Z,16.03
2018-10-09T18:31:33.721Z,16.61
2018-10-09T18:33:26.688Z,16.42
2018-10-09T18:34:26.748Z,15.94
2018-10-09T18:36:19.747Z,15.17
2018-10-09T18:37:19.792Z,13.84
2018-10-09T18:39:12.790Z,16.13